createdAt,value
2022-08-03T00:01:02.551Z,18.35
2022-08-03T00:02:05.141Z,18.37
2022-08-03T00:03:09.911Z,18.40
2022-08-03T00:04:12.688Z,18.39
2022-08-03T00:05:15.278Z,18.39
2022-08-03T00:06:19.784Z,18.41
2022-08-03T00:07:22.470Z,18.43
2022-08-03T00:08:25.207Z,18.45
2022-08-03T00:09:27.794Z,18.49
2022-08-03T00:10:33.299Z,18.52
2022-08-03T00:11:36.173Z,18.49
2022-08-03T00:12:38.856Z,18.48
2022-08-03T00:13:41.649Z,18.53
2022-08-03T00:14:44.295Z,18.53
2022-08-03T00:15:47.024Z,18.52
2022-08-03T00:16:50.112Z,18.52
2022-08-03T00:17:54.120Z,18.45
2022-08-03T00:18:56.855Z,18.47
2022-08-03T00:19:59.533Z,18.45
2022-08-03T00:21:03.580Z,18.43
2022-08-03T00:22:06.280Z,18.44
2022-08-03T00:23:09.119Z,18.43
2022-08-03T00:24:11.870Z,18.42
2022-08-03T00:25:14.619Z,18.49
2022-08-03T00:26:18.116Z,18.52
2022-08-03T00:27:20.822Z,18.47
2022-08-03T00:28:23.674Z,18.45
2022-08-03T00:29:28.262Z,18.52
2022-08-03T00:30:31.818Z,18.48
2022-08-03T00:31:51.455Z,18.49
2022-08-03T00:32:45.182Z,18.47
2022-08-03T00:33:58.090Z,18.45
2022-08-03T00:34:49.089Z,18.42
2022-08-03T00:35:53.658Z,18.39
2022-08-03T00:36:56.427Z,18.41
2022-08-03T00:37:59.030Z,18.39
2022-08-03T00:39:01.693Z,18.35
2022-08-03T00:40:05.485Z,18.37
2022-08-03T00:41:08.381Z,18.37
2022-08-03T00:42:11.061Z,18.39
2022-08-03T00:43:14.038Z,18.37
2022-08-03T00:44:16.594Z,18.38
2022-08-03T00:45:20.510Z,18.41
2022-08-03T00:46:24.215Z,18.41
2022-08-03T00:47:27.048Z,18.43
2022-08-03T00:48:33.321Z,18.43
2022-08-03T00:49:34.391Z,18.45
2022-08-03T00:50:41.757Z,18.46
2022-08-03T00:51:44.456Z,18.46
2022-08-03T00:52:47.259Z,18.49
2022-08-03T00:53:49.835Z,18.48
2022-08-03T00:54:52.618Z,18.48
2022-08-03T00:55:55.224Z,18.48
2022-08-03T00:56:59.754Z,18.48
2022-08-03T00:58:03.100Z,18.45
2022-08-03T00:59:05.790Z,18.47
2022-08-03T01:00:09.893Z,18.52
2022-08-03T01:01:12.966Z,18.51
2022-08-03T01:03:28.049Z,18.63
2022-08-03T01:04:30.751Z,18.54
2022-08-03T01:06:01.947Z,18.57
2022-08-03T01:08:24.883Z,18.64
2022-08-03T01:09:49.307Z,18.49
2022-08-03T01:10:55.897Z,18.46
2022-08-03T01:14:01.510Z,18.61
2022-08-03T01:14:37.657Z,18.51
2022-08-03T01:16:01.973Z,18.51
2022-08-03T01:17:25.042Z,18.54
2022-08-03T01:20:04.239Z,18.64
2022-08-03T01:21:09.632Z,18.54
2022-08-03T01:22:46.667Z,18.58
2022-08-03T01:23:59.207Z,18.54
2022-08-03T01:25:39.452Z,18.55
2022-08-03T01:26:45.971Z,18.55
2022-08-03T01:29:51.738Z,18.67
2022-08-03T01:30:56.457Z,18.55
2022-08-03T01:32:54.534Z,18.51
2022-08-03T01:34:27.659Z,18.61
2022-08-03T01:35:38.693Z,18.54
2022-08-03T01:38:03.098Z,18.63
2022-08-03T01:39:06.115Z,18.54
2022-08-03T01:40:10.279Z,18.56
2022-08-03T01:41:21.283Z,18.56
2022-08-03T01:42:24.795Z,18.58
2022-08-03T01:43:55.217Z,18.59
2022-08-03T01:44:37.598Z,18.57
2022-08-03T01:45:40.507Z,18.58
2022-08-03T01:46:47.726Z,18.57
2022-08-03T01:47:48.534Z,18.57
2022-08-03T01:48:51.335Z,18.57
2022-08-03T01:49:54.197Z,18.54
2022-08-03T01:50:57.160Z,18.52
2022-08-03T01:52:04.473Z,18.52
2022-08-03T01:53:04.589Z,18.52
2022-08-03T01:54:07.458Z,18.52
2022-08-03T01:55:10.702Z,18.54
2022-08-03T01:57:25.180Z,18.63
2022-08-03T01:58:27.860Z,18.52
2022-08-03T01:59:30.449Z,18.51
2022-08-03T02:00:37.206Z,18.52
2022-08-03T02:02:28.812Z,18.52
2022-08-03T02:02:46.586Z,18.52
2022-08-03T02:04:00.020Z,18.56
2022-08-03T02:04:55.149Z,18.55
2022-08-03T02:06:59.181Z,18.53
2022-08-03T02:07:03.451Z,18.54
2022-08-03T02:08:07.767Z,18.56
2022-08-03T02:09:10.672Z,18.59
2022-08-03T02:10:15.270Z,18.60
2022-08-03T02:11:18.041Z,18.59
2022-08-03T02:12:21.772Z,18.62
2022-08-03T02:13:24.653Z,18.65
2022-08-03T02:14:27.221Z,18.69
2022-08-03T02:15:29.813Z,18.69
2022-08-03T02:16:33.617Z,18.70
2022-08-03T02:18:53.027Z,18.75
2022-08-03T02:19:56.132Z,18.65
2022-08-03T02:21:00.600Z,18.64
2022-08-03T02:22:04.311Z,18.62
2022-08-03T02:23:07.006Z,18.64
2022-08-03T02:24:09.730Z,18.61
2022-08-03T02:25:13.412Z,18.65
2022-08-03T02:26:17.248Z,18.63
2022-08-03T02:27:21.937Z,18.63
2022-08-03T02:29:41.827Z,18.70
2022-08-03T02:30:46.126Z,18.62
2022-08-03T02:31:50.629Z,18.62
2022-08-03T02:32:54.902Z,18.64
2022-08-03T02:33:59.753Z,18.69
2022-08-03T02:35:03.541Z,18.70
2022-08-03T02:36:06.654Z,18.71
2022-08-03T02:38:20.935Z,18.86
2022-08-03T02:39:23.620Z,18.72
2022-08-03T02:40:28.933Z,18.72
2022-08-03T02:42:47.045Z,18.82
2022-08-03T02:44:06.346Z,18.74
2022-08-03T02:44:57.625Z,18.76
2022-08-03T02:46:00.406Z,18.78
2022-08-03T02:47:06.510Z,18.80
2022-08-03T02:48:09.218Z,18.87
2022-08-03T02:49:40.830Z,18.90
2022-08-03T02:50:20.067Z,18.92
2022-08-03T02:51:22.721Z,18.90
2022-08-03T02:52:27.288Z,18.87
2022-08-03T02:53:30.181Z,18.89
2022-08-03T02:54:32.949Z,18.87
2022-08-03T02:55:35.826Z,18.85
2022-08-03T02:56:40.542Z,18.84
2022-08-03T02:57:43.219Z,18.86
2022-08-03T02:58:45.794Z,18.84
2022-08-03T03:00:59.121Z,18.99
2022-08-03T03:02:02.789Z,18.84
2022-08-03T03:03:05.477Z,18.81
2022-08-03T03:04:08.169Z,18.78
2022-08-03T03:05:53.716Z,18.79
2022-08-03T03:06:18.331Z,18.79
2022-08-03T03:07:22.111Z,18.82
2022-08-03T03:08:25.938Z,18.74
2022-08-03T03:09:40.671Z,18.79
2022-08-03T03:10:36.540Z,18.79
2022-08-03T03:11:39.208Z,18.74
2022-08-03T03:12:41.805Z,18.74
2022-08-03T03:13:44.479Z,18.74
2022-08-03T03:14:47.372Z,18.77
2022-08-03T03:15:50.486Z,18.76
2022-08-03T03:16:57.969Z,18.77
2022-08-03T03:17:57.970Z,18.81
2022-08-03T03:19:00.652Z,18.80
2022-08-03T03:20:04.271Z,18.78
2022-08-03T03:21:07.071Z,18.77
2022-08-03T03:22:09.784Z,18.77
2022-08-03T03:23:13.425Z,18.77
2022-08-03T03:24:16.007Z,18.77
2022-08-03T03:25:18.835Z,18.75
2022-08-03T03:26:23.366Z,18.72
2022-08-03T03:27:26.163Z,18.72
2022-08-03T03:28:30.253Z,18.73
2022-08-03T03:29:39.247Z,18.72
2022-08-03T03:30:38.064Z,18.71
2022-08-03T03:31:40.695Z,18.81
2022-08-03T03:32:43.297Z,18.78
2022-08-03T03:33:45.985Z,18.76
2022-08-03T03:34:48.657Z,18.78
2022-08-03T03:35:51.870Z,18.77
2022-08-03T03:36:54.759Z,18.77
2022-08-03T03:37:57.432Z,18.78
2022-08-03T03:39:00.123Z,18.81
2022-08-03T03:40:05.774Z,18.83
2022-08-03T03:41:09.064Z,18.82
2022-08-03T03:42:11.848Z,18.86
2022-08-03T03:43:14.535Z,18.84
2022-08-03T03:44:17.440Z,18.82
2022-08-03T03:45:20.470Z,18.84
2022-08-03T03:46:25.025Z,18.86
2022-08-03T03:47:32.478Z,18.85
2022-08-03T03:48:32.850Z,18.87
2022-08-03T03:49:35.773Z,18.86
2022-08-03T03:50:39.715Z,18.87
2022-08-03T03:51:42.462Z,18.89
2022-08-03T03:52:45.200Z,18.93
2022-08-03T03:53:59.266Z,18.98
2022-08-03T03:55:02.088Z,19.02
2022-08-03T03:56:05.060Z,19.06
2022-08-03T03:57:08.470Z,19.03
2022-08-03T03:58:13.198Z,19.04
2022-08-03T03:59:16.034Z,19.04
2022-08-03T04:00:21.132Z,19.03
2022-08-03T04:01:24.077Z,19.05
2022-08-03T04:02:27.990Z,19.04
2022-08-03T04:03:30.674Z,19.01
2022-08-03T04:04:33.777Z,19.01
2022-08-03T04:05:36.577Z,19.02
2022-08-03T04:08:02.510Z,19.16
2022-08-03T04:09:05.237Z,19.12
2022-08-03T04:11:32.761Z,19.23
2022-08-03T04:12:35.383Z,19.13
2022-08-03T04:13:56.456Z,19.13
2022-08-03T04:15:01.069Z,19.11
2022-08-03T04:16:03.766Z,19.12
2022-08-03T04:17:07.046Z,19.12
2022-08-03T04:18:11.847Z,19.12
2022-08-03T04:19:23.421Z,19.10
2022-08-03T04:20:27.755Z,19.10
2022-08-03T04:21:31.965Z,19.11
2022-08-03T04:22:34.970Z,19.09
2022-08-03T04:23:40.846Z,19.10
2022-08-03T04:24:49.109Z,19.13
2022-08-03T04:25:51.943Z,19.11
2022-08-03T04:26:54.753Z,19.13
2022-08-03T04:27:59.511Z,19.13
2022-08-03T04:29:03.724Z,19.18
2022-08-03T04:30:07.815Z,19.17
2022-08-03T04:31:10.503Z,19.16
2022-08-03T04:32:13.568Z,19.17
2022-08-03T04:33:16.544Z,19.20
2022-08-03T04:34:19.667Z,19.23
2022-08-03T04:36:39.096Z,19.35
2022-08-03T04:37:42.994Z,19.27
2022-08-03T04:40:02.195Z,19.30
2022-08-03T04:41:05.017Z,19.18
2022-08-03T04:42:09.187Z,19.18
2022-08-03T04:43:12.560Z,19.17
2022-08-03T04:47:59.688Z,19.22
2022-08-03T04:49:05.473Z,19.24
2022-08-03T04:50:12.976Z,19.25
2022-08-03T04:51:14.126Z,19.29
2022-08-03T04:52:17.187Z,19.33
2022-08-03T04:54:30.955Z,19.47
2022-08-03T04:55:34.043Z,19.38
2022-08-03T04:56:42.152Z,19.38
2022-08-03T04:57:44.877Z,19.40
2022-08-03T04:58:47.610Z,19.43
2022-08-03T05:00:01.026Z,19.46
2022-08-03T05:00:59.421Z,19.48
2022-08-03T05:02:02.273Z,19.48
2022-08-03T05:03:23.521Z,19.47
2022-08-03T05:04:09.745Z,19.52
2022-08-03T05:05:12.416Z,19.54
2022-08-03T05:06:16.258Z,19.56
2022-08-03T05:07:24.106Z,19.61
2022-08-03T05:08:28.081Z,19.62
2022-08-03T05:09:50.838Z,19.65
2022-08-03T05:10:32.878Z,19.69
2022-08-03T05:11:37.166Z,19.72
2022-08-03T05:12:39.844Z,19.66
2022-08-03T05:13:43.428Z,19.68
2022-08-03T05:14:46.121Z,19.68
2022-08-03T05:15:48.791Z,19.69
2022-08-03T05:16:51.598Z,19.70
2022-08-03T05:17:54.402Z,19.71
2022-08-03T05:18:57.079Z,19.75
2022-08-03T05:20:00.145Z,19.74
2022-08-03T05:21:03.567Z,19.75
2022-08-03T05:22:06.268Z,19.75
2022-08-03T05:23:08.962Z,19.76
2022-08-03T05:24:11.638Z,19.75
2022-08-03T05:25:19.198Z,19.73
2022-08-03T05:26:20.729Z,19.74
2022-08-03T05:27:23.480Z,19.76
2022-08-03T05:28:26.133Z,19.73
2022-08-03T05:29:28.800Z,19.71
2022-08-03T05:30:34.410Z,19.70
2022-08-03T05:31:37.035Z,19.71
2022-08-03T05:32:39.725Z,19.70
2022-08-03T05:33:42.292Z,19.70
2022-08-03T05:34:45.174Z,19.69
2022-08-03T05:36:03.020Z,19.64
2022-08-03T05:36:52.909Z,19.66
2022-08-03T05:37:55.576Z,19.64
2022-08-03T05:39:02.485Z,19.60
2022-08-03T05:40:03.997Z,19.57
2022-08-03T05:41:21.089Z,19.56
2022-08-03T05:42:11.463Z,19.62
2022-08-03T05:44:25.037Z,19.65
2022-08-03T05:45:28.544Z,19.51
2022-08-03T05:46:32.020Z,19.54
2022-08-03T05:47:34.690Z,19.52
2022-08-03T05:48:37.467Z,19.50
2022-08-03T05:49:40.218Z,19.49
2022-08-03T05:50:43.125Z,19.47
2022-08-03T05:51:45.933Z,19.48
2022-08-03T05:53:59.182Z,19.56
2022-08-03T05:55:01.774Z,19.47
2022-08-03T05:56:14.443Z,19.47
2022-08-03T05:57:09.368Z,19.49
2022-08-03T05:58:12.077Z,19.50
2022-08-03T05:59:36.942Z,19.50
2022-08-03T06:00:21.254Z,19.56
2022-08-03T06:01:24.915Z,19.62
2022-08-03T06:02:27.755Z,19.60
2022-08-03T06:03:30.440Z,19.62
2022-08-03T06:04:33.215Z,19.68
2022-08-03T06:05:36.011Z,19.72
2022-08-03T06:06:40.871Z,19.78
2022-08-03T06:07:43.623Z,19.88
2022-08-03T06:08:46.317Z,19.99
2022-08-03T06:10:33.970Z,20.02
2022-08-03T06:10:53.974Z,20.07
2022-08-03T06:11:56.643Z,20.13
2022-08-03T06:12:59.229Z,20.19
2022-08-03T06:15:14.770Z,20.37
2022-08-03T06:16:18.387Z,20.33
2022-08-03T06:17:21.181Z,20.38
2022-08-03T06:18:23.862Z,20.41
2022-08-03T06:19:26.558Z,20.46
2022-08-03T06:20:31.094Z,20.53
2022-08-03T06:21:33.757Z,20.64
2022-08-03T06:22:37.586Z,20.74
2022-08-03T06:23:54.743Z,20.83
2022-08-03T06:24:53.495Z,20.80
2022-08-03T06:25:52.232Z,20.87
2022-08-03T06:26:55.111Z,20.93
2022-08-03T06:27:57.775Z,20.94
2022-08-03T06:29:00.718Z,20.94
2022-08-03T06:30:09.955Z,20.97
2022-08-03T06:31:13.233Z,20.94
2022-08-03T06:32:15.894Z,20.94
2022-08-03T06:33:20.204Z,20.93
2022-08-03T06:34:33.567Z,20.96
2022-08-03T06:35:27.492Z,21.03
2022-08-03T06:36:31.931Z,21.06
2022-08-03T06:37:44.752Z,21.06
2022-08-03T06:38:47.674Z,21.10
2022-08-03T06:39:50.247Z,21.15
2022-08-03T06:40:52.935Z,21.19
2022-08-03T06:41:56.285Z,21.22
2022-08-03T06:43:00.563Z,21.28
2022-08-03T06:44:04.666Z,21.35
2022-08-03T06:45:08.124Z,21.40
2022-08-03T06:46:11.514Z,21.45
2022-08-03T06:47:14.239Z,21.51
2022-08-03T06:48:16.908Z,21.53
2022-08-03T06:49:19.783Z,21.55
2022-08-03T06:52:37.704Z,21.67
2022-08-03T06:53:36.565Z,21.65
2022-08-03T06:54:39.274Z,21.75
2022-08-03T06:55:42.612Z,21.76
2022-08-03T06:56:45.785Z,21.75
2022-08-03T06:57:48.711Z,21.71
2022-08-03T06:58:51.637Z,21.73
2022-08-03T07:00:10.250Z,21.73
2022-08-03T07:00:59.164Z,21.70
2022-08-03T07:02:02.256Z,21.68
2022-08-03T07:03:04.936Z,21.70
2022-08-03T07:04:07.772Z,21.73
2022-08-03T07:05:10.462Z,21.77
2022-08-03T07:06:13.779Z,21.78
2022-08-03T07:07:16.480Z,21.77
2022-08-03T07:08:19.499Z,21.79
2022-08-03T07:09:23.970Z,21.81
2022-08-03T07:10:28.340Z,21.81
2022-08-03T07:11:31.241Z,21.79
2022-08-03T07:12:34.189Z,21.77
2022-08-03T07:13:36.892Z,21.75
2022-08-03T07:14:39.592Z,21.74
2022-08-03T07:15:55.232Z,21.73
2022-08-03T07:16:46.985Z,21.72
2022-08-03T07:17:49.571Z,21.70
2022-08-03T07:18:52.346Z,21.64
2022-08-03T07:19:55.015Z,21.68
2022-08-03T07:20:58.115Z,21.66
2022-08-03T07:22:02.272Z,21.63
2022-08-03T07:23:05.664Z,21.63
2022-08-03T07:24:08.547Z,21.63
2022-08-03T07:25:11.235Z,21.73
2022-08-03T07:26:14.332Z,21.74
2022-08-03T07:27:17.010Z,21.83
2022-08-03T07:28:19.921Z,21.79
2022-08-03T07:29:22.951Z,21.82
2022-08-03T07:30:26.842Z,21.85
2022-08-03T07:31:34.391Z,21.93
2022-08-03T07:32:34.275Z,21.92
2022-08-03T07:33:37.062Z,21.96
2022-08-03T07:34:39.690Z,22.00
2022-08-03T07:35:42.491Z,22.07
2022-08-03T07:36:45.296Z,22.08
2022-08-03T07:37:54.564Z,22.09
2022-08-03T07:38:52.677Z,22.15
2022-08-03T07:39:55.450Z,22.15
2022-08-03T07:40:58.568Z,22.19
2022-08-03T07:42:01.454Z,22.27
2022-08-03T07:43:04.237Z,22.39
2022-08-03T07:44:06.821Z,22.51
2022-08-03T07:45:09.857Z,22.57
2022-08-03T07:46:16.169Z,22.57
2022-08-03T07:47:22.606Z,22.59
2022-08-03T07:48:24.786Z,22.56
2022-08-03T07:49:27.763Z,22.58
2022-08-03T07:50:31.074Z,22.62
2022-08-03T07:51:33.931Z,22.60
2022-08-03T07:52:36.776Z,22.62
2022-08-03T07:53:45.961Z,22.61
2022-08-03T07:54:44.168Z,22.63
2022-08-03T07:55:46.909Z,22.55
2022-08-03T07:56:49.692Z,22.48
2022-08-03T07:59:19.434Z,22.61
2022-08-03T08:00:23.948Z,22.55
2022-08-03T08:01:26.972Z,22.62
2022-08-03T08:02:55.180Z,22.72
2022-08-03T08:03:59.033Z,22.80
2022-08-03T08:05:05.489Z,22.91
2022-08-03T08:06:07.164Z,22.93
2022-08-03T08:07:11.888Z,22.99
2022-08-03T08:08:14.665Z,22.98
2022-08-03T08:09:17.388Z,22.99
2022-08-03T08:10:21.268Z,22.98
2022-08-03T08:11:23.946Z,22.98
2022-08-03T08:12:26.517Z,22.99
2022-08-03T08:13:29.500Z,23.01
2022-08-03T08:14:32.090Z,22.98
2022-08-03T08:15:34.691Z,22.97
2022-08-03T08:16:37.476Z,22.94
2022-08-03T08:17:48.440Z,22.91
2022-08-03T08:18:51.133Z,22.91
2022-08-03T08:19:53.816Z,22.87
2022-08-03T08:20:56.804Z,22.80
2022-08-03T08:22:02.553Z,22.74
2022-08-03T08:23:12.129Z,22.68
2022-08-03T08:24:18.260Z,22.63
2022-08-03T08:25:16.142Z,22.65
2022-08-03T08:26:22.149Z,22.68
2022-08-03T08:27:24.859Z,22.70
2022-08-03T08:28:32.947Z,22.73
2022-08-03T08:29:31.955Z,22.78
2022-08-03T08:30:34.763Z,22.84
2022-08-03T08:31:38.054Z,22.90
2022-08-03T08:32:40.959Z,23.01
2022-08-03T08:34:48.241Z,23.19
2022-08-03T08:35:52.134Z,23.30
2022-08-03T08:36:55.035Z,23.34
2022-08-03T08:37:59.607Z,23.39
2022-08-03T08:39:04.220Z,23.44
2022-08-03T08:40:08.253Z,23.52
2022-08-03T08:41:11.389Z,23.63
2022-08-03T08:42:15.143Z,23.71
2022-08-03T08:43:18.113Z,23.79
2022-08-03T08:44:20.967Z,23.89
2022-08-03T08:45:23.924Z,23.96
2022-08-03T08:46:31.198Z,24.05
2022-08-03T08:48:46.552Z,24.40
2022-08-03T08:51:03.349Z,24.53
2022-08-03T08:53:28.850Z,24.46
2022-08-03T08:54:31.550Z,24.41
2022-08-03T08:56:00.063Z,24.39
2022-08-03T08:56:38.850Z,24.32
2022-08-03T08:57:49.145Z,24.31
2022-08-03T08:58:52.903Z,24.21
2022-08-03T08:59:58.815Z,24.21
2022-08-03T09:01:01.802Z,24.13
2022-08-03T09:02:04.616Z,24.16
2022-08-03T09:03:07.299Z,24.16
2022-08-03T09:04:09.980Z,24.15
2022-08-03T09:05:19.195Z,24.20
2022-08-03T09:06:22.496Z,24.23
2022-08-03T09:07:25.183Z,24.23
2022-08-03T09:08:31.617Z,24.27
2022-08-03T09:10:11.194Z,24.23
2022-08-03T09:10:39.183Z,24.13
2022-08-03T09:11:53.174Z,24.10
2022-08-03T09:12:48.662Z,24.12
2022-08-03T09:13:51.354Z,24.17
2022-08-03T09:15:14.608Z,24.16
2022-08-03T09:17:24.973Z,24.26
2022-08-03T09:18:32.262Z,24.07
2022-08-03T09:19:33.675Z,24.06
2022-08-03T09:20:37.799Z,24.05
2022-08-03T09:21:40.588Z,24.11
2022-08-03T09:23:44.526Z,24.15
2022-08-03T09:24:31.242Z,24.18
2022-08-03T09:25:25.430Z,24.24
2022-08-03T09:26:28.893Z,24.24
2022-08-03T09:27:42.584Z,24.21
2022-08-03T09:29:00.005Z,24.15
2022-08-03T09:29:50.792Z,24.16
2022-08-03T09:30:59.789Z,24.12
2022-08-03T09:32:03.090Z,24.20
2022-08-03T09:33:08.433Z,24.24
2022-08-03T09:34:12.937Z,24.24
2022-08-03T09:35:16.054Z,24.22
2022-08-03T09:36:37.228Z,24.23
2022-08-03T09:38:11.978Z,24.25
2022-08-03T09:38:44.861Z,24.30
2022-08-03T09:39:47.467Z,24.35
2022-08-03T09:40:50.362Z,24.35
2022-08-03T09:42:07.001Z,24.39
2022-08-03T09:43:09.800Z,24.37
2022-08-03T09:44:24.251Z,24.40
2022-08-03T09:45:26.331Z,24.36
2022-08-03T09:46:29.420Z,24.37
2022-08-03T09:47:33.531Z,24.32
2022-08-03T09:48:36.244Z,24.30
2022-08-03T09:49:41.057Z,24.27
2022-08-03T09:52:37.693Z,24.42
2022-08-03T09:53:21.684Z,24.37
2022-08-03T09:54:27.824Z,24.34
2022-08-03T09:56:45.420Z,24.38
2022-08-03T09:57:48.158Z,24.29
2022-08-03T09:58:50.741Z,24.26
2022-08-03T10:00:04.546Z,24.17
2022-08-03T10:02:21.741Z,24.13
2022-08-03T10:03:25.609Z,23.95
2022-08-03T10:04:28.209Z,23.90
2022-08-03T10:05:31.721Z,23.81
2022-08-03T10:06:36.238Z,23.68
2022-08-03T10:07:46.185Z,23.61
2022-08-03T10:09:08.163Z,23.37
2022-08-03T10:10:30.128Z,23.12
2022-08-03T10:11:28.934Z,23.03
2022-08-03T10:12:31.547Z,22.87
2022-08-03T10:13:34.230Z,22.74
2022-08-03T10:14:37.908Z,22.53
2022-08-03T10:16:23.784Z,22.49
2022-08-03T10:16:46.272Z,22.47
2022-08-03T10:17:48.975Z,22.37
2022-08-03T10:18:51.634Z,22.31
2022-08-03T10:19:54.419Z,22.34
2022-08-03T10:21:04.116Z,22.30
2022-08-03T10:22:09.958Z,22.31
2022-08-03T10:23:13.331Z,22.33
2022-08-03T10:24:17.128Z,22.30
2022-08-03T10:25:19.812Z,22.33
2022-08-03T10:26:24.337Z,22.37
2022-08-03T10:27:29.187Z,22.36
2022-08-03T10:28:35.800Z,22.36
2022-08-03T10:29:39.342Z,22.38
2022-08-03T10:30:44.312Z,22.44
2022-08-03T10:31:57.414Z,22.51
2022-08-03T10:32:55.590Z,22.53
2022-08-03T10:33:58.332Z,22.57
2022-08-03T10:35:20.095Z,22.61
2022-08-03T10:36:09.571Z,22.68
2022-08-03T10:37:12.445Z,22.78
2022-08-03T10:38:21.373Z,22.84
2022-08-03T10:39:25.210Z,22.90
2022-08-03T10:41:37.499Z,23.01
2022-08-03T10:42:42.037Z,23.03
2022-08-03T10:45:21.106Z,23.21
2022-08-03T10:46:23.933Z,23.12
2022-08-03T10:47:26.550Z,23.13
2022-08-03T10:48:29.330Z,23.15
2022-08-03T10:49:34.516Z,23.16
2022-08-03T10:50:36.490Z,23.18
2022-08-03T10:51:39.166Z,23.18
2022-08-03T10:52:58.334Z,23.21
2022-08-03T10:54:03.281Z,23.22
2022-08-03T10:55:39.012Z,23.33
2022-08-03T10:56:49.667Z,23.40
2022-08-03T10:57:50.090Z,23.48
2022-08-03T10:58:57.381Z,23.45
2022-08-03T10:59:59.704Z,23.52
2022-08-03T11:01:07.585Z,23.56
2022-08-03T11:02:10.464Z,23.62
2022-08-03T11:03:13.259Z,23.64
2022-08-03T11:04:17.482Z,23.70
2022-08-03T11:05:30.401Z,23.77
2022-08-03T11:06:37.404Z,23.79
2022-08-03T11:07:39.606Z,23.82
2022-08-03T11:08:42.277Z,23.87
2022-08-03T11:09:46.468Z,23.89
2022-08-03T11:10:52.287Z,23.97
2022-08-03T11:11:55.081Z,23.98
2022-08-03T11:13:07.027Z,24.11
2022-08-03T11:14:20.164Z,24.17
2022-08-03T11:16:43.781Z,24.42
2022-08-03T11:17:56.002Z,24.36
2022-08-03T11:18:59.306Z,24.35
2022-08-03T11:20:02.688Z,24.41
2022-08-03T11:21:05.406Z,24.39
2022-08-03T11:22:08.065Z,24.35
2022-08-03T11:23:10.826Z,24.32
2022-08-03T11:24:37.712Z,24.27
2022-08-03T11:27:25.427Z,24.38
2022-08-03T11:28:28.258Z,24.26
2022-08-03T11:29:31.158Z,24.26
2022-08-03T11:30:35.655Z,24.28
2022-08-03T11:31:51.770Z,24.30
2022-08-03T11:32:51.828Z,24.30
2022-08-03T11:34:11.093Z,24.27
2022-08-03T11:35:30.318Z,24.22
2022-08-03T11:37:11.447Z,24.21
2022-08-03T11:38:14.270Z,24.15
2022-08-03T11:39:17.201Z,24.10
2022-08-03T11:40:45.244Z,24.09
2022-08-03T11:41:48.044Z,24.13
2022-08-03T11:42:51.041Z,24.08
2022-08-03T11:43:56.127Z,24.10
2022-08-03T11:44:59.627Z,24.16
2022-08-03T11:46:06.040Z,24.22
2022-08-03T11:47:10.633Z,24.22
2022-08-03T11:48:15.262Z,24.12
2022-08-03T11:49:17.906Z,24.14
2022-08-03T11:50:22.491Z,24.18
2022-08-03T11:51:26.869Z,24.23
2022-08-03T11:52:37.643Z,24.29
2022-08-03T11:53:42.275Z,24.37
2022-08-03T11:54:45.018Z,24.33
2022-08-03T11:55:47.820Z,24.38
2022-08-03T11:56:50.916Z,24.44
2022-08-03T11:59:09.311Z,24.49
2022-08-03T11:59:20.193Z,24.53
2022-08-03T12:00:06.063Z,24.54
2022-08-03T12:01:08.938Z,24.54
2022-08-03T12:02:12.601Z,24.59
2022-08-03T12:03:16.641Z,24.63
2022-08-03T12:04:19.270Z,24.61
2022-08-03T12:05:33.519Z,24.61
2022-08-03T12:06:36.625Z,24.67
2022-08-03T12:08:03.534Z,24.74
2022-08-03T12:08:44.211Z,24.78
2022-08-03T12:10:07.167Z,24.80
2022-08-03T12:11:12.447Z,24.88
2022-08-03T12:12:15.714Z,24.86
2022-08-03T12:14:45.506Z,24.89
2022-08-03T12:14:48.981Z,24.92
2022-08-03T12:15:29.127Z,24.99
2022-08-03T12:16:32.887Z,25.02
2022-08-03T12:18:58.662Z,25.35
2022-08-03T12:20:01.850Z,25.32
2022-08-03T12:21:07.052Z,25.37
2022-08-03T12:22:09.766Z,25.43
2022-08-03T12:23:12.569Z,25.48
2022-08-03T12:24:15.352Z,25.52
2022-08-03T12:25:38.632Z,25.47
2022-08-03T12:26:58.307Z,25.45
2022-08-03T12:27:56.535Z,25.36
2022-08-03T12:28:59.271Z,25.28
2022-08-03T12:30:02.249Z,25.14
2022-08-03T12:32:18.006Z,25.07
2022-08-03T12:33:25.117Z,24.58
2022-08-03T12:34:47.777Z,24.44
2022-08-03T12:37:19.038Z,23.24
2022-08-03T12:38:19.760Z,23.16
2022-08-03T12:39:23.074Z,23.06
2022-08-03T12:40:28.153Z,22.99
2022-08-03T12:42:43.864Z,22.99
2022-08-03T12:43:49.315Z,22.83
2022-08-03T12:44:54.659Z,22.84
2022-08-03T12:46:13.628Z,22.84
2022-08-03T12:47:16.354Z,22.87
2022-08-03T12:48:19.046Z,22.88
2022-08-03T12:49:23.828Z,22.83
2022-08-03T12:50:31.250Z,22.90
2022-08-03T12:51:43.595Z,22.93
2022-08-03T12:52:46.210Z,22.90
2022-08-03T12:53:53.003Z,22.94
2022-08-03T12:54:56.621Z,23.03
2022-08-03T12:57:16.025Z,23.16
2022-08-03T12:59:52.756Z,23.33
2022-08-03T13:00:55.660Z,23.34
2022-08-03T13:01:58.698Z,23.38
2022-08-03T13:03:38.191Z,23.48
2022-08-03T13:04:13.419Z,23.59
2022-08-03T13:05:15.731Z,23.71
2022-08-03T13:07:36.781Z,24.03
2022-08-03T13:08:39.501Z,24.10
2022-08-03T13:09:44.480Z,24.24
2022-08-03T13:10:47.418Z,24.36
2022-08-03T13:12:05.242Z,24.47
2022-08-03T13:13:09.735Z,24.44
2022-08-03T13:14:16.649Z,24.54
2022-08-03T13:15:17.068Z,24.55
2022-08-03T13:16:21.585Z,24.48
2022-08-03T13:17:24.682Z,24.43
2022-08-03T13:18:27.468Z,24.41
2022-08-03T13:19:31.596Z,24.25
2022-08-03T13:20:35.109Z,24.18
2022-08-03T13:21:37.981Z,24.07
2022-08-03T13:22:44.580Z,24.01
2022-08-03T13:23:47.291Z,23.95
2022-08-03T13:24:51.579Z,23.90
2022-08-03T13:25:55.828Z,23.94
2022-08-03T13:26:59.752Z,23.90
2022-08-03T13:28:06.111Z,23.84
2022-08-03T13:29:07.327Z,23.87
2022-08-03T13:30:11.203Z,23.84
2022-08-03T13:32:24.575Z,24.28
2022-08-03T13:33:27.480Z,24.45
2022-08-03T13:34:30.564Z,24.76
2022-08-03T13:35:33.470Z,24.93
2022-08-03T13:37:06.327Z,25.01
2022-08-03T13:37:41.032Z,25.09
2022-08-03T13:38:43.879Z,25.20
2022-08-03T13:39:58.977Z,25.35
2022-08-03T13:40:53.205Z,25.35
2022-08-03T13:41:56.665Z,25.42
2022-08-03T13:42:59.438Z,25.45
2022-08-03T13:44:26.563Z,25.47
2022-08-03T13:45:07.280Z,25.50
2022-08-03T13:46:10.682Z,25.66
2022-08-03T13:47:13.595Z,25.64
2022-08-03T13:48:16.411Z,25.64
2022-08-03T13:49:21.103Z,25.52
2022-08-03T13:50:24.565Z,25.49
2022-08-03T13:51:27.473Z,25.42
2022-08-03T13:52:31.350Z,25.31
2022-08-03T13:53:33.964Z,25.15
2022-08-03T13:54:36.957Z,25.21
2022-08-03T13:55:39.553Z,25.21
2022-08-03T13:56:42.232Z,25.13
2022-08-03T13:58:05.382Z,25.19
2022-08-03T13:58:49.632Z,25.16
2022-08-03T14:01:02.982Z,24.96
2022-08-03T14:02:05.846Z,24.59
2022-08-03T14:03:14.216Z,24.43
2022-08-03T14:04:15.859Z,24.28
2022-08-03T14:05:18.127Z,24.14
2022-08-03T14:06:22.820Z,23.96
2022-08-03T14:07:25.506Z,23.76
2022-08-03T14:08:28.789Z,23.64
2022-08-03T14:09:31.346Z,23.53
2022-08-03T14:10:35.322Z,23.48
2022-08-03T14:12:08.153Z,23.36
2022-08-03T14:13:53.115Z,23.24
2022-08-03T14:14:58.281Z,23.05
2022-08-03T14:16:00.393Z,23.07
2022-08-03T14:17:04.943Z,23.13
2022-08-03T14:18:15.633Z,23.14
2022-08-03T14:19:12.376Z,23.17
